Portada
METAR-TAF:

METAR-TAF

Aeropuertos :

Gran Canaria, España

Aeropuerto de Gran Canaria

latitud: 27-56N, longitud: 015-23W, altitud: 23 m

Observación

El informe se hizo hace 16 minutos, a las 20:30 UTC
Viento 15 kt del norte-noreste
Temperatura 21°C
Humedad 73%
Presión 1021 hPa
Visibilidad 10 km o más
Escasas nubes a una altura de 2000 ft

METAR: GCLP 162030Z 02015KT 9999 FEW020 21/16 Q1021 NOSIG

Hora: 21:46 (20:46 UTC)

Pronóstico

El informe se hizo hace 46 minutos, a las 20:00 UTC
Pronóstico válido del 16 a las 21 UTC al 17 a las 21 UTC
Viento 12 kt del norte
Visibilidad 10 km o más
Escasas nubes a una altura de 2000 ft
Probabilidad 40% :
Temporalmente
del 17 a las 10 UTC al 17 a las 21 UTC
Viento 15 kt del norte-noreste con ráfagas de 25 kt

TAF: GCLP 162000Z 1621/1721 01012KT 9999 FEW020 TX25/1714Z TN17/1706Z PROB40 TEMPO 1710/1721 02015G25KT

Observaciones y pronósticos meteorológicos de más de 4000 aeropuertos (mensajes METAR y TAF).

Los puntos amarillos y rojos representan las estaciones disponibles.

Ponga el ratón en el punto deseado para ver el nombre de la estación.

Haga clic para ver las observaciones y los pronósticos meteorológicos.

Para cambiar el mapa : haga clic en los botones verdes con una cruz de color negro para hacer un zoom, en el botón verde con un guión para alejar o en las flechas verdes para mapas adyacentes.


METAR-TAF: